createdAt,value
2018-11-07T00:00:31.059Z,100313.33
2018-11-07T00:02:59.322Z,100312.94
2018-11-07T00:05:26.821Z,100308.28
2018-11-07T00:07:54.685Z,100307.89
2018-11-07T00:10:22.362Z,100316.59
2018-11-07T00:12:49.843Z,100320.19
2018-11-07T00:15:19.011Z,100313.27
2018-11-07T00:17:46.587Z,100331.53
2018-11-07T00:20:14.547Z,100335.66
2018-11-07T00:22:41.972Z,100324.41
2018-11-07T00:25:10.700Z,100325.97
2018-11-07T00:27:39.525Z,100325.38
2018-11-07T00:30:07.906Z,100328.06
2018-11-07T00:32:35.842Z,100325.38
2018-11-07T00:35:04.230Z,100324.33
2018-11-07T00:37:31.623Z,100329.77
2018-11-07T00:40:02.257Z,100338.37
2018-11-07T00:42:29.881Z,100343.58
2018-11-07T00:44:57.881Z,100334.48
2018-11-07T00:47:25.697Z,100333.27
2018-11-07T00:49:53.171Z,100340.20
2018-11-07T00:52:21.260Z,100345.97
2018-11-07T00:54:48.724Z,100345.84
2018-11-07T00:57:16.755Z,100341.73
2018-11-07T00:59:44.935Z,100336.56
2018-11-07T01:02:12.546Z,100357.32
2018-11-07T01:04:41.611Z,100352.45
2018-11-07T01:07:09.358Z,100364.61
2018-11-07T01:09:37.866Z,100361.56
2018-11-07T01:12:05.472Z,100351.41
2018-11-07T01:14:33.000Z,100353.22
2018-11-07T01:17:01.400Z,100356.77
2018-11-07T01:19:28.960Z,100357.44
2018-11-07T01:21:57.129Z,100353.42
2018-11-07T01:24:24.698Z,100349.48
2018-11-07T01:26:52.361Z,100350.04
2018-11-07T01:29:21.561Z,100349.09
2018-11-07T01:31:49.076Z,100366.23
2018-11-07T01:34:16.857Z,100365.34
2018-11-07T01:36:44.398Z,100359.11
2018-11-07T01:39:11.892Z,100357.75
2018-11-07T01:41:40.284Z,100364.13
2018-11-07T01:44:08.525Z,100353.14
2018-11-07T01:46:36.377Z,100354.28
2018-11-07T01:49:04.047Z,100363.43
2018-11-07T01:51:32.429Z,100355.00
2018-11-07T01:54:02.777Z,100359.21
2018-11-07T01:56:30.320Z,100348.30
2018-11-07T02:00:28.041Z,100343.55
2018-11-07T02:02:55.592Z,100345.17
2018-11-07T02:05:23.630Z,100350.92
2018-11-07T02:07:51.801Z,100335.98
2018-11-07T02:10:19.334Z,100336.68
2018-11-07T02:12:47.205Z,100328.02
2018-11-07T02:15:15.223Z,100329.15
2018-11-07T02:17:43.692Z,100330.69
2018-11-07T02:20:11.705Z,100338.27
2018-11-07T02:22:39.408Z,100351.59
2018-11-07T02:25:07.810Z,100347.50
2018-11-07T02:27:35.314Z,100351.16
2018-11-07T02:30:03.819Z,100348.14
2018-11-07T02:32:31.210Z,100349.48
2018-11-07T02:34:58.715Z,100343.93
2018-11-07T02:37:26.625Z,100339.95
2018-11-07T02:39:54.650Z,100330.78
2018-11-07T02:42:24.177Z,100341.45
2018-11-07T02:44:51.758Z,100347.75
2018-11-07T02:47:19.356Z,100350.39
2018-11-07T02:49:47.286Z,100353.45
2018-11-07T02:52:15.777Z,100350.72
2018-11-07T02:54:43.770Z,100344.44
2018-11-07T02:57:11.316Z,100332.41
2018-11-07T02:59:38.779Z,100336.68
2018-11-07T03:02:06.701Z,100340.47
2018-11-07T03:04:34.177Z,100337.80
2018-11-07T03:07:03.055Z,100348.69
2018-11-07T03:09:30.617Z,100337.06
2018-11-07T03:11:58.052Z,100334.78
2018-11-07T03:14:26.153Z,100341.94
2018-11-07T03:16:53.709Z,100340.66
2018-11-07T03:19:21.663Z,100323.56
2018-11-07T03:21:49.271Z,100321.35
2018-11-07T03:24:16.696Z,100322.89
2018-11-07T03:26:44.593Z,100317.07
2018-11-07T03:29:13.445Z,100309.05
2018-11-07T03:31:42.594Z,100307.96
2018-11-07T03:34:10.048Z,100301.27
2018-11-07T03:36:38.271Z,100292.37
2018-11-07T03:39:08.935Z,100292.63
2018-11-07T03:41:36.801Z,100305.45
2018-11-07T03:44:05.895Z,100317.82
2018-11-07T03:46:33.461Z,100305.91
2018-11-07T03:49:01.226Z,100307.16
2018-11-07T03:51:29.749Z,100308.52
2018-11-07T03:53:57.273Z,100311.05
2018-11-07T03:56:26.587Z,100311.31
2018-11-07T03:58:54.189Z,100321.31
2018-11-07T04:01:22.742Z,100316.51
2018-11-07T04:03:50.796Z,100312.03
2018-11-07T04:06:19.381Z,100314.84
2018-11-07T04:08:47.590Z,100315.86
2018-11-07T04:11:15.133Z,100315.06
2018-11-07T04:13:42.707Z,100322.47
2018-11-07T04:16:10.584Z,100320.30
2018-11-07T04:18:38.149Z,100315.45
2018-11-07T04:21:07.531Z,100310.89
2018-11-07T04:23:35.320Z,100306.39
2018-11-07T04:26:03.003Z,100317.83
2018-11-07T04:28:32.272Z,100311.02
2018-11-07T04:30:59.722Z,100312.67
2018-11-07T04:33:27.690Z,100313.72
2018-11-07T04:35:55.317Z,100311.36
2018-11-07T04:38:22.918Z,100310.82
2018-11-07T04:40:51.092Z,100312.85
2018-11-07T04:43:18.825Z,100306.92
2018-11-07T04:45:47.651Z,100309.10
2018-11-07T04:48:15.131Z,100321.25
2018-11-07T04:50:42.771Z,100321.17
2018-11-07T04:53:10.616Z,100328.70
2018-11-07T04:55:38.112Z,100321.25
2018-11-07T04:58:06.387Z,100318.66
2018-11-07T05:00:33.838Z,100323.66
2018-11-07T05:03:01.298Z,100321.09
2018-11-07T05:05:29.840Z,100329.91
2018-11-07T05:07:57.342Z,100326.20
2018-11-07T05:10:25.938Z,100327.69
2018-11-07T05:12:53.864Z,100333.63
2018-11-07T05:15:21.409Z,100310.39
2018-11-07T05:17:49.406Z,100302.67
2018-11-07T05:20:16.990Z,100304.20
2018-11-07T05:22:45.224Z,100311.09
2018-11-07T05:25:12.723Z,100310.40
2018-11-07T05:27:41.309Z,100314.31
2018-11-07T05:30:10.118Z,100317.80
2018-11-07T05:32:37.670Z,100317.41
2018-11-07T05:35:07.034Z,100317.55
2018-11-07T05:37:34.626Z,100314.89
2018-11-07T05:40:02.210Z,100308.86
2018-11-07T05:42:30.088Z,100307.52
2018-11-07T05:44:58.228Z,100303.83
2018-11-07T05:47:26.204Z,100290.12
2018-11-07T05:49:53.700Z,100287.76
2018-11-07T05:52:21.294Z,100284.59
2018-11-07T05:54:49.144Z,100283.58
2018-11-07T05:57:16.713Z,100286.88
2018-11-07T05:59:45.862Z,100291.85
2018-11-07T06:02:13.301Z,100286.95
2018-11-07T06:04:41.391Z,100280.95
2018-11-07T06:07:09.465Z,100294.36
2018-11-07T06:09:36.945Z,100302.30
2018-11-07T06:12:05.339Z,100306.20
2018-11-07T06:14:32.968Z,100302.52
2018-11-07T06:17:00.438Z,100287.73
2018-11-07T06:19:28.591Z,100282.56
2018-11-07T06:21:56.061Z,100294.59
2018-11-07T06:24:25.183Z,100291.69
2018-11-07T06:26:52.688Z,100305.06
2018-11-07T06:29:20.171Z,100298.64
2018-11-07T06:31:47.945Z,100303.33
2018-11-07T06:34:15.874Z,100308.36
2018-11-07T06:36:43.783Z,100315.98
2018-11-07T06:42:17.323Z,100318.10
2018-11-07T06:44:44.938Z,100318.77
2018-11-07T06:47:14.773Z,100318.57
2018-11-07T06:49:42.364Z,100306.89
2018-11-07T06:52:10.019Z,100308.05
2018-11-07T06:54:37.962Z,100306.99
2018-11-07T06:57:05.493Z,100314.70
2018-11-07T06:59:33.418Z,100325.55
2018-11-07T07:02:00.902Z,100330.16
2018-11-07T07:04:28.475Z,100333.47
2018-11-07T07:06:56.519Z,100341.05
2018-11-07T07:09:23.991Z,100341.18
2018-11-07T07:11:52.424Z,100352.78
2018-11-07T07:14:19.929Z,100356.39
2018-11-07T07:16:47.615Z,100359.34
2018-11-07T07:19:16.853Z,100366.86
2018-11-07T07:21:44.354Z,100369.23
2018-11-07T07:24:12.357Z,100371.89
2018-11-07T07:26:39.913Z,100362.06
2018-11-07T07:29:07.377Z,100366.61
2018-11-07T07:31:35.377Z,100364.28
2018-11-07T07:34:02.895Z,100366.39
2018-11-07T07:36:32.148Z,100362.45
2018-11-07T07:38:59.734Z,100365.66
2018-11-07T07:41:28.445Z,100368.34
2018-11-07T07:43:56.456Z,100366.63
2018-11-07T07:46:24.061Z,100363.27
2018-11-07T07:48:52.339Z,100369.78
2018-11-07T07:51:20.016Z,100366.45
2018-11-07T07:53:47.706Z,100359.16
2018-11-07T07:56:15.892Z,100359.00
2018-11-07T07:58:44.425Z,100356.42
2018-11-07T08:01:12.427Z,100354.31
2018-11-07T08:03:40.278Z,100356.50
2018-11-07T08:06:07.865Z,100354.69
2018-11-07T08:08:35.758Z,100356.02
2018-11-07T08:11:03.381Z,100355.78
2018-11-07T08:13:31.373Z,100350.84
2018-11-07T08:15:58.860Z,100350.15
2018-11-07T08:18:27.542Z,100351.06
2018-11-07T08:20:55.477Z,100341.81
2018-11-07T08:23:22.893Z,100350.45
2018-11-07T08:25:50.800Z,100350.47
2018-11-07T08:28:18.318Z,100351.95
2018-11-07T08:30:45.894Z,100355.41
2018-11-07T08:33:15.099Z,100351.55
2018-11-07T08:35:42.513Z,100352.35
2018-11-07T08:38:11.705Z,100353.92
2018-11-07T08:42:08.769Z,100351.84
2018-11-07T08:44:36.670Z,100348.72
2018-11-07T08:47:04.322Z,100344.25
2018-11-07T08:49:33.689Z,100342.13
2018-11-07T08:52:01.262Z,100350.91
2018-11-07T08:57:20.326Z,100347.86
2018-11-07T08:59:49.019Z,100355.63
2018-11-07T09:02:16.730Z,100361.93
2018-11-07T09:04:44.482Z,100358.34
2018-11-07T09:07:12.688Z,100364.12
2018-11-07T09:09:40.718Z,100361.59
2018-11-07T09:12:08.758Z,100354.05
2018-11-07T09:14:36.214Z,100353.62
2018-11-07T09:17:03.770Z,100348.83
2018-11-07T09:19:32.785Z,100349.88
2018-11-07T09:22:00.448Z,100348.17
2018-11-07T09:24:28.449Z,100351.63
2018-11-07T09:26:55.926Z,100343.85
2018-11-07T09:29:23.527Z,100350.81
2018-11-07T09:31:52.309Z,100349.09
2018-11-07T09:34:19.939Z,100356.47
2018-11-07T09:36:49.324Z,100355.06
2018-11-07T09:39:16.808Z,100358.34
2018-11-07T09:41:44.373Z,100352.48
2018-11-07T09:44:12.286Z,100343.58
2018-11-07T09:46:39.765Z,100348.27
2018-11-07T09:49:07.713Z,100346.48
2018-11-07T09:51:35.203Z,100341.76
2018-11-07T09:54:02.884Z,100346.71
2018-11-07T09:56:30.826Z,100344.91
2018-11-07T09:58:59.839Z,100347.59
2018-11-07T10:01:27.522Z,100342.02
2018-11-07T10:03:55.078Z,100345.08
2018-11-07T10:06:22.586Z,100349.20
2018-11-07T10:08:51.474Z,100350.16
2018-11-07T10:11:20.268Z,100359.69
2018-11-07T10:13:48.301Z,100348.46
2018-11-07T10:16:16.846Z,100350.19
2018-11-07T10:18:44.306Z,100346.91
2018-11-07T10:21:13.727Z,100341.56
2018-11-07T10:23:42.617Z,100338.98
2018-11-07T10:26:12.171Z,100339.20
2018-11-07T10:28:40.271Z,100333.80
2018-11-07T10:31:08.337Z,100339.31
2018-11-07T10:33:36.432Z,100333.92
2018-11-07T10:36:04.761Z,100329.27
2018-11-07T10:38:34.623Z,100325.72
2018-11-07T10:41:02.203Z,100324.25
2018-11-07T10:43:29.686Z,100318.09
2018-11-07T10:45:57.240Z,100324.53
2018-11-07T10:51:15.560Z,100326.48
2018-11-07T10:53:43.138Z,100329.39
2018-11-07T10:56:10.649Z,100324.31
2018-11-07T10:58:38.282Z,100322.84
2018-11-07T11:01:15.893Z,100319.92
2018-11-07T11:03:45.459Z,100316.27
2018-11-07T11:06:13.573Z,100320.09
2018-11-07T11:08:41.814Z,100317.31
2018-11-07T11:11:10.840Z,100308.13
2018-11-07T11:13:38.885Z,100306.34
2018-11-07T11:16:06.424Z,100316.34
2018-11-07T11:18:34.018Z,100315.55
2018-11-07T11:21:01.622Z,100308.71
2018-11-07T11:23:31.206Z,100304.95
2018-11-07T11:26:00.233Z,100303.11
2018-11-07T11:28:27.665Z,100297.01
2018-11-07T11:30:55.226Z,100300.25
2018-11-07T11:33:22.856Z,100298.89
2018-11-07T11:35:51.258Z,100307.14
2018-11-07T11:38:18.777Z,100306.27
2018-11-07T11:40:46.313Z,100309.39
2018-11-07T11:43:13.747Z,100309.09
2018-11-07T11:45:42.316Z,100299.77
2018-11-07T11:48:13.445Z,100309.56
2018-11-07T11:50:41.033Z,100299.59
2018-11-07T11:53:09.071Z,100300.98
2018-11-07T11:55:37.473Z,100309.67
2018-11-07T11:58:05.263Z,100313.95
2018-11-07T12:00:33.974Z,100300.83
2018-11-07T12:03:02.048Z,100301.94
2018-11-07T12:05:29.584Z,100300.53
2018-11-07T12:07:57.241Z,100300.95
2018-11-07T12:10:25.558Z,100300.07
2018-11-07T12:12:56.565Z,100309.82
2018-11-07T12:15:25.580Z,100308.50
2018-11-07T12:17:53.581Z,100310.26
2018-11-07T12:20:21.214Z,100304.61
2018-11-07T12:22:49.056Z,100307.09
2018-11-07T12:25:19.564Z,100307.14
2018-11-07T12:27:47.389Z,100301.34
2018-11-07T12:30:18.272Z,100295.59
2018-11-07T12:32:47.137Z,100291.87
2018-11-07T12:35:15.899Z,100293.47
2018-11-07T12:37:45.325Z,100298.31
2018-11-07T12:40:13.376Z,100291.86
2018-11-07T12:42:40.967Z,100301.66
2018-11-07T12:45:09.838Z,100294.15
2018-11-07T12:47:37.822Z,100288.31
2018-11-07T12:50:09.381Z,100292.54
2018-11-07T12:52:36.751Z,100291.35
2018-11-07T12:55:05.526Z,100291.97
2018-11-07T12:57:33.312Z,100291.78
2018-11-07T13:00:01.212Z,100285.39
2018-11-07T13:02:30.588Z,100279.51
2018-11-07T13:04:58.556Z,100283.59
2018-11-07T13:07:26.054Z,100287.46
2018-11-07T13:09:53.575Z,100290.51
2018-11-07T13:12:21.773Z,100298.85
2018-11-07T13:14:50.217Z,100299.34
2018-11-07T13:17:17.801Z,100299.14
2018-11-07T13:21:14.747Z,100303.55
2018-11-07T13:23:42.689Z,100327.03
2018-11-07T13:26:12.667Z,100319.77
2018-11-07T13:28:40.213Z,100324.52
2018-11-07T13:31:07.797Z,100326.38
2018-11-07T13:33:35.434Z,100329.24
2018-11-07T13:36:03.001Z,100339.23
2018-11-07T13:38:31.930Z,100342.30
2018-11-07T13:40:58.984Z,100337.13
2018-11-07T13:43:26.492Z,100351.55
2018-11-07T13:45:55.388Z,100355.63
2018-11-07T13:48:22.724Z,100355.53
2018-11-07T13:51:07.360Z,100367.61
2018-11-07T13:53:34.816Z,100368.71
2018-11-07T13:56:02.334Z,100371.42
2018-11-07T13:58:29.873Z,100367.36
2018-11-07T14:00:58.259Z,100375.81
2018-11-07T14:03:26.148Z,100375.66
2018-11-07T14:05:53.750Z,100383.49
2018-11-07T14:08:21.202Z,100385.75
2018-11-07T14:10:48.737Z,100391.20
2018-11-07T14:13:17.682Z,100388.98
2018-11-07T14:15:45.625Z,100400.32
2018-11-07T14:18:13.848Z,100387.79
2018-11-07T14:20:41.894Z,100388.45
2018-11-07T14:23:09.366Z,100394.42
2018-11-07T14:25:37.837Z,100398.55
2018-11-07T14:28:06.645Z,100395.70
2018-11-07T14:30:33.942Z,100401.68
2018-11-07T14:33:01.819Z,100397.45
2018-11-07T14:35:29.382Z,100392.41
2018-11-07T14:37:58.816Z,100390.38
2018-11-07T14:40:26.345Z,100392.16
2018-11-07T14:42:55.269Z,100392.09
2018-11-07T14:45:22.696Z,100393.02
2018-11-07T14:47:50.204Z,100391.72
2018-11-07T14:50:18.620Z,100392.45
2018-11-07T14:52:46.063Z,100391.52
2018-11-07T14:55:13.697Z,100397.97
2018-11-07T14:57:41.393Z,100395.44
2018-11-07T15:00:12.135Z,100396.00
2018-11-07T15:02:42.714Z,100399.03
2018-11-07T15:05:11.497Z,100400.13
2018-11-07T15:07:39.599Z,100398.81
2018-11-07T15:10:08.464Z,100408.42
2018-11-07T15:12:36.092Z,100408.95
2018-11-07T15:15:04.854Z,100414.73
2018-11-07T15:17:34.054Z,100410.25
2018-11-07T15:20:01.748Z,100420.44
2018-11-07T15:22:29.243Z,100421.69
2018-11-07T15:24:57.004Z,100421.12
2018-11-07T15:27:26.273Z,100425.30
2018-11-07T15:29:53.971Z,100422.50
2018-11-07T15:32:21.641Z,100424.52
2018-11-07T15:34:49.199Z,100432.28
2018-11-07T15:37:17.637Z,100434.48
2018-11-07T15:39:47.799Z,100438.42
2018-11-07T15:42:15.281Z,100442.80
2018-11-07T15:44:42.713Z,100438.86
2018-11-07T15:47:10.210Z,100443.24
2018-11-07T15:49:42.077Z,100445.69
2018-11-07T15:52:11.883Z,100447.09
2018-11-07T15:54:39.311Z,100442.25
2018-11-07T15:57:06.767Z,100450.31
2018-11-07T15:59:34.282Z,100455.62
2018-11-07T16:02:02.419Z,100451.68
2018-11-07T16:04:31.109Z,100456.23
2018-11-07T16:06:58.830Z,100464.73
2018-11-07T16:09:26.355Z,100460.53
2018-11-07T16:11:53.939Z,100465.38
2018-11-07T16:14:23.753Z,100455.52
2018-11-07T16:16:53.100Z,100465.38
2018-11-07T16:19:20.650Z,100470.19
2018-11-07T16:21:48.282Z,100469.88
2018-11-07T16:24:15.797Z,100466.41
2018-11-07T16:26:43.346Z,100474.85
2018-11-07T16:29:11.965Z,100476.52
2018-11-07T16:31:39.907Z,100476.16
2018-11-07T16:34:07.441Z,100485.97
2018-11-07T16:36:35.107Z,100490.70
2018-11-07T16:39:03.412Z,100483.05
2018-11-07T16:41:32.621Z,100493.55
2018-11-07T16:44:00.070Z,100503.90
2018-11-07T16:46:27.761Z,100509.89
2018-11-07T16:48:55.258Z,100508.41
2018-11-07T16:51:23.717Z,100510.25
2018-11-07T16:53:52.159Z,100518.80
2018-11-07T16:56:19.640Z,100519.75
2018-11-07T16:58:47.137Z,100524.75
2018-11-07T17:01:14.593Z,100529.33
2018-11-07T17:03:42.172Z,100530.08
2018-11-07T17:06:11.876Z,100538.05
2018-11-07T17:08:39.345Z,100536.66
2018-11-07T17:11:06.748Z,100535.48
2018-11-07T17:13:34.353Z,100532.03
2018-11-07T17:16:01.770Z,100541.98
2018-11-07T17:18:30.178Z,100541.23
2018-11-07T17:20:57.934Z,100546.70
2018-11-07T17:23:25.510Z,100550.16
2018-11-07T17:25:53.042Z,100566.77
2018-11-07T17:28:21.424Z,100563.89
2018-11-07T17:30:51.130Z,100579.86
2018-11-07T17:33:18.833Z,100582.79
2018-11-07T17:35:46.461Z,100584.22
2018-11-07T17:38:13.888Z,100591.59
2018-11-07T17:40:41.345Z,100592.65
2018-11-07T17:43:09.980Z,100597.66
2018-11-07T17:45:37.447Z,100598.38
2018-11-07T17:48:05.017Z,100604.16
2018-11-07T17:50:32.599Z,100599.19
2018-11-07T17:53:00.052Z,100597.84
2018-11-07T17:55:28.897Z,100602.73
2018-11-07T17:57:56.535Z,100607.95
2018-11-07T18:00:29.475Z,100599.70
2018-11-07T18:02:58.160Z,100611.00
2018-11-07T18:05:25.619Z,100619.21
2018-11-07T18:07:54.228Z,100617.41
2018-11-07T18:10:21.914Z,100622.90
2018-11-07T18:12:49.507Z,100620.95
2018-11-07T18:15:16.964Z,100621.81
2018-11-07T18:17:44.629Z,100623.49
2018-11-07T18:20:15.312Z,100625.80
2018-11-07T18:22:42.851Z,100626.73
2018-11-07T18:25:11.577Z,100640.06
2018-11-07T18:27:39.617Z,100637.84
2018-11-07T18:30:08.526Z,100637.81
2018-11-07T18:32:36.974Z,100643.61
2018-11-07T18:35:05.859Z,100642.70
2018-11-07T18:37:33.260Z,100639.52
2018-11-07T18:40:03.450Z,100644.22
2018-11-07T18:42:30.940Z,100648.21
2018-11-07T18:44:59.263Z,100641.75
2018-11-07T18:47:26.826Z,100644.13
2018-11-07T18:49:54.507Z,100647.91
2018-11-07T18:52:21.947Z,100646.23
2018-11-07T18:54:49.424Z,100653.91
2018-11-07T18:57:18.910Z,100648.86
2018-11-07T18:59:47.190Z,100657.01
2018-11-07T19:02:15.983Z,100666.64
2018-11-07T19:04:43.575Z,100658.48
2018-11-07T19:07:11.209Z,100667.87
2018-11-07T19:09:39.641Z,100673.47
2018-11-07T19:12:07.205Z,100676.44
2018-11-07T19:14:34.659Z,100682.50
2018-11-07T19:17:02.345Z,100682.27
2018-11-07T19:19:29.896Z,100685.61
2018-11-07T19:21:59.445Z,100687.93
2018-11-07T19:24:27.160Z,100689.97
2018-11-07T19:26:54.879Z,100695.33
2018-11-07T19:29:22.543Z,100693.59
2018-11-07T19:31:50.100Z,100696.14
2018-11-07T19:34:18.938Z,100691.85
2018-11-07T19:36:46.924Z,100698.08
2018-11-07T19:39:16.070Z,100693.86
2018-11-07T19:41:45.308Z,100691.86
2018-11-07T19:44:12.914Z,100692.89
2018-11-07T19:46:42.329Z,100705.44
2018-11-07T19:49:09.817Z,100708.03
2018-11-07T19:51:37.356Z,100710.84
2018-11-07T19:54:04.940Z,100710.78
2018-11-07T19:56:32.476Z,100714.13
2018-11-07T19:59:02.177Z,100713.39
2018-11-07T20:01:29.714Z,100721.95
2018-11-07T20:03:57.294Z,100724.13
2018-11-07T20:06:25.816Z,100738.11
2018-11-07T20:08:53.397Z,100730.50
2018-11-07T20:11:21.916Z,100739.48
2018-11-07T20:13:49.407Z,100738.16
2018-11-07T20:16:17.023Z,100737.13
2018-11-07T20:18:44.996Z,100739.20
2018-11-07T20:21:12.675Z,100750.80
2018-11-07T20:23:42.051Z,100745.66
2018-11-07T20:26:09.467Z,100746.47
2018-11-07T20:28:37.005Z,100744.56
2018-11-07T20:31:04.967Z,100755.18
2018-11-07T20:33:32.481Z,100751.66
2018-11-07T20:36:00.953Z,100752.70
2018-11-07T20:38:28.791Z,100754.30
2018-11-07T20:40:58.095Z,100749.61
2018-11-07T20:43:25.659Z,100747.84
2018-11-07T20:45:53.242Z,100749.79
2018-11-07T20:48:21.183Z,100747.95
2018-11-07T20:50:48.751Z,100754.20
2018-11-07T20:53:16.755Z,100754.55
2018-11-07T20:55:44.225Z,100765.98
2018-11-07T20:58:12.717Z,100773.89
2018-11-07T21:00:41.236Z,100773.34
2018-11-07T21:03:08.811Z,100770.28
2018-11-07T21:05:36.880Z,100771.41
2018-11-07T21:08:04.509Z,100787.98
2018-11-07T21:10:31.998Z,100787.50
2018-11-07T21:12:59.899Z,100791.40
2018-11-07T21:15:27.686Z,100800.27
2018-11-07T21:17:55.806Z,100807.50
2018-11-07T21:20:23.900Z,100811.03
2018-11-07T21:22:51.356Z,100819.78
2018-11-07T21:25:20.271Z,100821.19
2018-11-07T21:27:47.893Z,100816.11
2018-11-07T21:30:17.165Z,100823.08
2018-11-07T21:32:44.733Z,100818.09
2018-11-07T21:35:12.249Z,100812.97
2018-11-07T21:37:40.591Z,100819.83
2018-11-07T21:40:09.898Z,100819.52
2018-11-07T21:42:38.242Z,100823.31
2018-11-07T21:45:07.802Z,100820.99
2018-11-07T21:47:35.250Z,100822.72
2018-11-07T21:50:05.614Z,100830.03
2018-11-07T21:52:33.164Z,100838.69
2018-11-07T21:55:01.096Z,100841.31
2018-11-07T21:57:28.624Z,100842.52
2018-11-07T21:59:56.436Z,100847.13
2018-11-07T22:02:24.417Z,100855.20
2018-11-07T22:04:52.220Z,100861.70
2018-11-07T22:07:20.743Z,100857.87
2018-11-07T22:09:48.202Z,100861.52
2018-11-07T22:15:14.892Z,100866.33
2018-11-07T22:17:42.793Z,100861.50
2018-11-07T22:20:12.956Z,100860.57
2018-11-07T22:22:41.960Z,100862.31
2018-11-07T22:25:09.428Z,100853.25
2018-11-07T22:27:37.418Z,100860.31
2018-11-07T22:30:06.827Z,100862.26
2018-11-07T22:32:34.261Z,100859.49
2018-11-07T22:35:01.729Z,100862.59
2018-11-07T22:37:29.285Z,100865.86
2018-11-07T22:39:58.500Z,100868.92
2018-11-07T22:42:26.972Z,100869.70
2018-11-07T22:44:56.000Z,100870.46
2018-11-07T22:47:23.510Z,100871.22
2018-11-07T22:49:51.055Z,100876.77
2018-11-07T22:52:19.045Z,100869.16
2018-11-07T22:54:46.954Z,100872.16
2018-11-07T22:57:14.571Z,100865.39
2018-11-07T22:59:42.251Z,100867.34
2018-11-07T23:02:09.755Z,100872.49
2018-11-07T23:04:38.344Z,100871.77
2018-11-07T23:07:06.487Z,100877.55
2018-11-07T23:09:34.025Z,100872.84
2018-11-07T23:12:01.485Z,100893.73
2018-11-07T23:14:29.038Z,100882.86
2018-11-07T23:16:57.175Z,100883.41
2018-11-07T23:19:25.199Z,100885.30
2018-11-07T23:21:53.554Z,100891.14
2018-11-07T23:24:21.194Z,100884.95
2018-11-07T23:26:48.682Z,100892.55
2018-11-07T23:29:17.324Z,100904.58
2018-11-07T23:31:45.228Z,100912.14
2018-11-07T23:34:12.832Z,100916.84
2018-11-07T23:36:40.418Z,100912.59
2018-11-07T23:39:08.878Z,100914.41
2018-11-07T23:41:36.915Z,100919.82
2018-11-07T23:44:05.809Z,100929.68
2018-11-07T23:46:33.249Z,100931.46
2018-11-07T23:49:00.771Z,100930.80
2018-11-07T23:51:28.233Z,100932.52
2018-11-07T23:53:57.082Z,100935.05
2018-11-07T23:56:24.948Z,100940.82
2018-11-07T23:58:52.540Z,100957.69
